sensor_id;sensor_type;location;lat;lon;timestamp;temperature;humidity
68691;DHT22;55675;49.588;8.640;2023-04-07T00:01:51;10.70;90.00
68691;DHT22;55675;49.588;8.640;2023-04-07T00:04:16;10.70;90.00
68691;DHT22;55675;49.588;8.640;2023-04-07T00:06:42;10.70;90.10
68691;DHT22;55675;49.588;8.640;2023-04-07T00:09:08;10.60;90.10
68691;DHT22;55675;49.588;8.640;2023-04-07T00:11:33;10.60;90.10
68691;DHT22;55675;49.588;8.640;2023-04-07T00:13:59;10.60;90.20
68691;DHT22;55675;49.588;8.640;2023-04-07T00:16:24;10.60;90.20
68691;DHT22;55675;49.588;8.640;2023-04-07T00:18:50;10.60;90.30
68691;DHT22;55675;49.588;8.640;2023-04-07T00:21:15;10.60;90.40
68691;DHT22;55675;49.588;8.640;2023-04-07T00:23:40;10.60;90.30
68691;DHT22;55675;49.588;8.640;2023-04-07T00:26:07;10.60;90.40
68691;DHT22;55675;49.588;8.640;2023-04-07T00:28:32;10.60;90.40
68691;DHT22;55675;49.588;8.640;2023-04-07T00:30:57;10.50;90.40
68691;DHT22;55675;49.588;8.640;2023-04-07T00:33:23;10.60;90.40
68691;DHT22;55675;49.588;8.640;2023-04-07T00:35:48;10.50;90.40
68691;DHT22;55675;49.588;8.640;2023-04-07T00:38:14;10.50;90.40
68691;DHT22;55675;49.588;8.640;2023-04-07T00:40:39;10.50;90.40
68691;DHT22;55675;49.588;8.640;2023-04-07T00:43:05;10.50;90.40
68691;DHT22;55675;49.588;8.640;2023-04-07T00:45:30;10.50;90.40
68691;DHT22;55675;49.588;8.640;2023-04-07T00:47:56;10.50;90.50
68691;DHT22;55675;49.588;8.640;2023-04-07T00:50:22;10.60;90.40
68691;DHT22;55675;49.588;8.640;2023-04-07T00:52:47;10.60;90.50
68691;DHT22;55675;49.588;8.640;2023-04-07T00:55:13;10.60;90.50
68691;DHT22;55675;49.588;8.640;2023-04-07T00:57:38;10.60;90.50
68691;DHT22;55675;49.588;8.640;2023-04-07T01:00:04;10.60;90.50
68691;DHT22;55675;49.588;8.640;2023-04-07T01:02:32;10.50;90.50
68691;DHT22;55675;49.588;8.640;2023-04-07T01:05:03;10.60;90.50
68691;DHT22;55675;49.588;8.640;2023-04-07T01:10:05;10.60;90.50
68691;DHT22;55675;49.588;8.640;2023-04-07T01:12:35;10.60;90.40
68691;DHT22;55675;49.588;8.640;2023-04-07T01:15:06;10.60;90.40
68691;DHT22;55675;49.588;8.640;2023-04-07T01:17:33;10.60;90.40
68691;DHT22;55675;49.588;8.640;2023-04-07T01:20:01;10.60;90.40
68691;DHT22;55675;49.588;8.640;2023-04-07T01:22:33;10.60;90.40
68691;DHT22;55675;49.588;8.640;2023-04-07T01:29:52;10.50;90.30
68691;DHT22;55675;49.588;8.640;2023-04-07T01:32:18;10.50;90.30
68691;DHT22;55675;49.588;8.640;2023-04-07T01:34:46;10.50;90.50
68691;DHT22;55675;49.588;8.640;2023-04-07T01:37:12;10.60;90.50
68691;DHT22;55675;49.588;8.640;2023-04-07T01:39:39;10.60;90.40
68691;DHT22;55675;49.588;8.640;2023-04-07T01:42:05;10.60;90.40
68691;DHT22;55675;49.588;8.640;2023-04-07T01:47:37;10.60;90.40
68691;DHT22;55675;49.588;8.640;2023-04-07T01:50:03;10.60;90.40
68691;DHT22;55675;49.588;8.640;2023-04-07T01:52:30;10.60;90.40
68691;DHT22;55675;49.588;8.640;2023-04-07T01:54:55;10.70;90.40
68691;DHT22;55675;49.588;8.640;2023-04-07T01:57:22;10.70;90.40
68691;DHT22;55675;49.588;8.640;2023-04-07T01:59:47;10.60;90.30
68691;DHT22;55675;49.588;8.640;2023-04-07T02:02:13;10.60;90.40
68691;DHT22;55675;49.588;8.640;2023-04-07T02:04:48;10.60;90.40
68691;DHT22;55675;49.588;8.640;2023-04-07T02:07:18;10.60;90.40
68691;DHT22;55675;49.588;8.640;2023-04-07T02:09:43;10.60;90.40
68691;DHT22;55675;49.588;8.640;2023-04-07T02:12:11;10.60;90.30
68691;DHT22;55675;49.588;8.640;2023-04-07T02:14:38;10.60;90.40
68691;DHT22;55675;49.588;8.640;2023-04-07T02:17:04;10.70;90.30
68691;DHT22;55675;49.588;8.640;2023-04-07T02:19:30;10.60;90.30
68691;DHT22;55675;49.588;8.640;2023-04-07T02:21:57;10.70;90.30
68691;DHT22;55675;49.588;8.640;2023-04-07T02:24:23;10.70;90.30
68691;DHT22;55675;49.588;8.640;2023-04-07T02:26:48;10.70;90.30
68691;DHT22;55675;49.588;8.640;2023-04-07T02:29:14;10.70;90.30
68691;DHT22;55675;49.588;8.640;2023-04-07T02:31:39;10.70;90.30
68691;DHT22;55675;49.588;8.640;2023-04-07T02:34:05;10.70;90.30
68691;DHT22;55675;49.588;8.640;2023-04-07T02:36:30;10.70;90.20
68691;DHT22;55675;49.588;8.640;2023-04-07T02:38:56;10.70;90.10
68691;DHT22;55675;49.588;8.640;2023-04-07T02:41:21;10.70;90.10
68691;DHT22;55675;49.588;8.640;2023-04-07T02:43:47;10.70;90.10
68691;DHT22;55675;49.588;8.640;2023-04-07T02:46:12;10.70;90.20
68691;DHT22;55675;49.588;8.640;2023-04-07T02:48:38;10.70;90.20
68691;DHT22;55675;49.588;8.640;2023-04-07T02:51:03;10.70;90.20
68691;DHT22;55675;49.588;8.640;2023-04-07T02:53:29;10.70;90.20
68691;DHT22;55675;49.588;8.640;2023-04-07T02:55:54;10.70;90.20
68691;DHT22;55675;49.588;8.640;2023-04-07T02:58:19;10.70;90.20
68691;DHT22;55675;49.588;8.640;2023-04-07T03:00:46;10.70;90.10
68691;DHT22;55675;49.588;8.640;2023-04-07T03:03:12;10.60;90.10
68691;DHT22;55675;49.588;8.640;2023-04-07T03:05:37;10.60;90.00
68691;DHT22;55675;49.588;8.640;2023-04-07T03:08:02;10.60;90.10
68691;DHT22;55675;49.588;8.640;2023-04-07T03:10:28;10.60;90.00
68691;DHT22;55675;49.588;8.640;2023-04-07T03:12:54;10.60;90.00
68691;DHT22;55675;49.588;8.640;2023-04-07T03:15:19;10.50;90.10
68691;DHT22;55675;49.588;8.640;2023-04-07T03:17:45;10.40;90.10
68691;DHT22;55675;49.588;8.640;2023-04-07T03:20:11;10.30;90.20
68691;DHT22;55675;49.588;8.640;2023-04-07T03:22:36;10.30;90.30
68691;DHT22;55675;49.588;8.640;2023-04-07T03:25:02;10.30;90.40
68691;DHT22;55675;49.588;8.640;2023-04-07T03:27:27;10.20;90.50
68691;DHT22;55675;49.588;8.640;2023-04-07T03:29:52;10.30;90.70
68691;DHT22;55675;49.588;8.640;2023-04-07T03:32:18;10.20;90.60
68691;DHT22;55675;49.588;8.640;2023-04-07T03:34:43;10.30;90.60
68691;DHT22;55675;49.588;8.640;2023-04-07T03:37:09;10.30;90.60
68691;DHT22;55675;49.588;8.640;2023-04-07T03:39:35;10.30;90.60
68691;DHT22;55675;49.588;8.640;2023-04-07T03:42:01;10.40;90.60
68691;DHT22;55675;49.588;8.640;2023-04-07T03:44:27;10.40;90.70
68691;DHT22;55675;49.588;8.640;2023-04-07T03:46:52;10.40;90.70
68691;DHT22;55675;49.588;8.640;2023-04-07T03:49:18;10.40;90.70
68691;DHT22;55675;49.588;8.640;2023-04-07T03:51:43;10.40;90.80
68691;DHT22;55675;49.588;8.640;2023-04-07T03:54:09;10.40;90.70
68691;DHT22;55675;49.588;8.640;2023-04-07T03:56:34;10.40;90.70
68691;DHT22;55675;49.588;8.640;2023-04-07T03:59:01;10.40;90.70
68691;DHT22;55675;49.588;8.640;2023-04-07T04:01:27;10.40;90.80
68691;DHT22;55675;49.588;8.640;2023-04-07T04:03:52;10.40;90.70
68691;DHT22;55675;49.588;8.640;2023-04-07T04:06:18;10.40;90.70
68691;DHT22;55675;49.588;8.640;2023-04-07T04:08:43;10.40;90.70
68691;DHT22;55675;49.588;8.640;2023-04-07T04:11:08;10.40;90.70
68691;DHT22;55675;49.588;8.640;2023-04-07T04:13:34;10.30;90.80
68691;DHT22;55675;49.588;8.640;2023-04-07T04:15:59;10.30;90.90
68691;DHT22;55675;49.588;8.640;2023-04-07T04:18:25;10.30;90.90
68691;DHT22;55675;49.588;8.640;2023-04-07T04:20:50;10.30;90.90
68691;DHT22;55675;49.588;8.640;2023-04-07T04:23:16;10.30;90.90
68691;DHT22;55675;49.588;8.640;2023-04-07T04:25:41;10.30;90.90
68691;DHT22;55675;49.588;8.640;2023-04-07T04:28:06;10.30;91.00
68691;DHT22;55675;49.588;8.640;2023-04-07T04:30:32;10.30;90.90
68691;DHT22;55675;49.588;8.640;2023-04-07T04:32:57;10.30;90.90
68691;DHT22;55675;49.588;8.640;2023-04-07T04:35:23;10.30;90.80
68691;DHT22;55675;49.588;8.640;2023-04-07T04:37:49;10.30;91.00
68691;DHT22;55675;49.588;8.640;2023-04-07T04:40:14;10.30;91.00
68691;DHT22;55675;49.588;8.640;2023-04-07T04:42:40;10.20;90.90
68691;DHT22;55675;49.588;8.640;2023-04-07T04:45:06;10.20;91.00
68691;DHT22;55675;49.588;8.640;2023-04-07T04:47:31;10.10;91.00
68691;DHT22;55675;49.588;8.640;2023-04-07T04:49:57;10.10;91.10
68691;DHT22;55675;49.588;8.640;2023-04-07T04:52:22;10.10;91.20
68691;DHT22;55675;49.588;8.640;2023-04-07T04:54:47;10.10;91.20
68691;DHT22;55675;49.588;8.640;2023-04-07T04:57:13;10.00;91.20
68691;DHT22;55675;49.588;8.640;2023-04-07T04:59:38;10.00;91.20
68691;DHT22;55675;49.588;8.640;2023-04-07T05:02:04;10.00;91.30
68691;DHT22;55675;49.588;8.640;2023-04-07T05:04:30;10.10;91.30
68691;DHT22;55675;49.588;8.640;2023-04-07T05:06:55;10.10;91.40
68691;DHT22;55675;49.588;8.640;2023-04-07T05:09:21;10.00;91.30
68691;DHT22;55675;49.588;8.640;2023-04-07T05:11:46;10.00;91.30
68691;DHT22;55675;49.588;8.640;2023-04-07T05:14:12;10.10;91.40
68691;DHT22;55675;49.588;8.640;2023-04-07T05:16:37;10.00;91.30
68691;DHT22;55675;49.588;8.640;2023-04-07T05:19:03;10.00;91.30
68691;DHT22;55675;49.588;8.640;2023-04-07T05:21:28;10.00;91.40
68691;DHT22;55675;49.588;8.640;2023-04-07T05:23:53;10.10;91.40
68691;DHT22;55675;49.588;8.640;2023-04-07T05:26:19;10.10;91.40
68691;DHT22;55675;49.588;8.640;2023-04-07T05:28:45;10.10;91.40
68691;DHT22;55675;49.588;8.640;2023-04-07T05:31:11;10.10;91.40
68691;DHT22;55675;49.588;8.640;2023-04-07T05:33:36;10.10;91.70
68691;DHT22;55675;49.588;8.640;2023-04-07T05:36:02;10.20;91.40
68691;DHT22;55675;49.588;8.640;2023-04-07T05:38:27;10.20;91.50
68691;DHT22;55675;49.588;8.640;2023-04-07T05:40:52;10.20;91.50
68691;DHT22;55675;49.588;8.640;2023-04-07T05:43:18;10.20;91.50
68691;DHT22;55675;49.588;8.640;2023-04-07T05:45:43;10.30;91.60
68691;DHT22;55675;49.588;8.640;2023-04-07T05:48:09;10.30;91.60
68691;DHT22;55675;49.588;8.640;2023-04-07T05:50:34;10.30;91.60
68691;DHT22;55675;49.588;8.640;2023-04-07T05:53:00;10.40;91.60
68691;DHT22;55675;49.588;8.640;2023-04-07T05:55:25;10.40;91.60
68691;DHT22;55675;49.588;8.640;2023-04-07T05:57:51;10.50;91.60
68691;DHT22;55675;49.588;8.640;2023-04-07T06:00:17;10.50;91.60
68691;DHT22;55675;49.588;8.640;2023-04-07T06:02:42;10.60;91.70
68691;DHT22;55675;49.588;8.640;2023-04-07T06:05:08;10.70;91.60
68691;DHT22;55675;49.588;8.640;2023-04-07T06:07:33;10.70;91.60
68691;DHT22;55675;49.588;8.640;2023-04-07T06:09:58;10.80;91.60
68691;DHT22;55675;49.588;8.640;2023-04-07T06:12:24;10.80;91.50
68691;DHT22;55675;49.588;8.640;2023-04-07T06:14:50;10.90;91.40
68691;DHT22;55675;49.588;8.640;2023-04-07T06:17:16;11.00;91.40
68691;DHT22;55675;49.588;8.640;2023-04-07T06:19:42;11.10;91.30
68691;DHT22;55675;49.588;8.640;2023-04-07T06:22:07;11.10;91.20
68691;DHT22;55675;49.588;8.640;2023-04-07T06:24:33;11.20;91.10
68691;DHT22;55675;49.588;8.640;2023-04-07T06:26:59;11.30;91.00
68691;DHT22;55675;49.588;8.640;2023-04-07T06:29:25;11.40;91.00
68691;DHT22;55675;49.588;8.640;2023-04-07T06:31:50;11.40;90.90
68691;DHT22;55675;49.588;8.640;2023-04-07T06:34:16;11.50;90.90
68691;DHT22;55675;49.588;8.640;2023-04-07T06:36:41;11.60;90.90
68691;DHT22;55675;49.588;8.640;2023-04-07T06:39:07;11.60;90.90
68691;DHT22;55675;49.588;8.640;2023-04-07T06:41:32;11.70;90.90
68691;DHT22;55675;49.588;8.640;2023-04-07T06:43:58;11.80;90.90
68691;DHT22;55675;49.588;8.640;2023-04-07T06:46:23;11.90;90.90
68691;DHT22;55675;49.588;8.640;2023-04-07T06:48:50;11.90;90.80
68691;DHT22;55675;49.588;8.640;2023-04-07T06:51:16;12.00;90.60
68691;DHT22;55675;49.588;8.640;2023-04-07T06:53:41;12.10;90.60
68691;DHT22;55675;49.588;8.640;2023-04-07T06:56:09;12.20;90.50
68691;DHT22;55675;49.588;8.640;2023-04-07T06:58:34;12.30;90.40
68691;DHT22;55675;49.588;8.640;2023-04-07T07:01:00;12.40;90.10
68691;DHT22;55675;49.588;8.640;2023-04-07T07:03:26;12.50;89.80
68691;DHT22;55675;49.588;8.640;2023-04-07T07:05:57;12.60;89.80
68691;DHT22;55675;49.588;8.640;2023-04-07T07:08:22;12.70;89.70
68691;DHT22;55675;49.588;8.640;2023-04-07T07:10:48;12.80;89.20
68691;DHT22;55675;49.588;8.640;2023-04-07T07:13:13;12.90;89.10
68691;DHT22;55675;49.588;8.640;2023-04-07T07:15:39;13.00;88.80
68691;DHT22;55675;49.588;8.640;2023-04-07T07:18:05;13.10;88.50
68691;DHT22;55675;49.588;8.640;2023-04-07T07:20:30;13.20;88.30
68691;DHT22;55675;49.588;8.640;2023-04-07T07:22:56;13.30;87.50
68691;DHT22;55675;49.588;8.640;2023-04-07T07:25:22;13.40;86.90
68691;DHT22;55675;49.588;8.640;2023-04-07T07:27:48;13.60;86.70
68691;DHT22;55675;49.588;8.640;2023-04-07T07:30:21;13.70;85.90
68691;DHT22;55675;49.588;8.640;2023-04-07T07:32:46;13.80;85.30
68691;DHT22;55675;49.588;8.640;2023-04-07T07:35:12;13.90;85.30
68691;DHT22;55675;49.588;8.640;2023-04-07T07:37:37;14.00;84.80
68691;DHT22;55675;49.588;8.640;2023-04-07T07:40:03;14.10;83.90
68691;DHT22;55675;49.588;8.640;2023-04-07T07:42:29;14.10;83.80
68691;DHT22;55675;49.588;8.640;2023-04-07T07:44:55;14.10;83.00
68691;DHT22;55675;49.588;8.640;2023-04-07T07:47:21;14.10;81.80
68691;DHT22;55675;49.588;8.640;2023-04-07T07:49:47;14.20;81.70
68691;DHT22;55675;49.588;8.640;2023-04-07T07:52:12;14.20;81.30
68691;DHT22;55675;49.588;8.640;2023-04-07T07:54:38;14.30;81.20
68691;DHT22;55675;49.588;8.640;2023-04-07T07:57:03;14.50;81.40
68691;DHT22;55675;49.588;8.640;2023-04-07T07:59:30;14.60;80.40
68691;DHT22;55675;49.588;8.640;2023-04-07T08:01:56;14.70;80.40
68691;DHT22;55675;49.588;8.640;2023-04-07T08:04:21;14.90;79.90
68691;DHT22;55675;49.588;8.640;2023-04-07T08:06:47;15.00;77.90
68691;DHT22;55675;49.588;8.640;2023-04-07T08:09:13;15.10;76.60
68691;DHT22;55675;49.588;8.640;2023-04-07T08:11:39;15.20;76.90
68691;DHT22;55675;49.588;8.640;2023-04-07T08:14:05;15.10;73.80
68691;DHT22;55675;49.588;8.640;2023-04-07T08:16:31;15.00;73.10
68691;DHT22;55675;49.588;8.640;2023-04-07T08:18:56;15.00;73.50
68691;DHT22;55675;49.588;8.640;2023-04-07T08:21:22;15.00;73.10
68691;DHT22;55675;49.588;8.640;2023-04-07T08:23:47;15.00;74.10
68691;DHT22;55675;49.588;8.640;2023-04-07T08:26:13;15.10;75.00
68691;DHT22;55675;49.588;8.640;2023-04-07T08:28:38;15.30;74.20
68691;DHT22;55675;49.588;8.640;2023-04-07T08:31:04;15.30;74.10
68691;DHT22;55675;49.588;8.640;2023-04-07T08:33:29;15.40;74.60
68691;DHT22;55675;49.588;8.640;2023-04-07T08:35:54;15.40;74.60
68691;DHT22;55675;49.588;8.640;2023-04-07T08:38:21;15.50;74.50
68691;DHT22;55675;49.588;8.640;2023-04-07T08:40:47;15.50;74.50
68691;DHT22;55675;49.588;8.640;2023-04-07T08:43:13;15.50;74.00
68691;DHT22;55675;49.588;8.640;2023-04-07T08:45:40;15.50;74.10
68691;DHT22;55675;49.588;8.640;2023-04-07T08:48:15;15.40;72.90
68691;DHT22;55675;49.588;8.640;2023-04-07T08:50:43;15.30;72.90
68691;DHT22;55675;49.588;8.640;2023-04-07T08:53:08;15.30;72.60
68691;DHT22;55675;49.588;8.640;2023-04-07T08:55:34;15.30;72.90
68691;DHT22;55675;49.588;8.640;2023-04-07T08:58:00;15.40;73.10
68691;DHT22;55675;49.588;8.640;2023-04-07T09:00:27;15.40;73.00
68691;DHT22;55675;49.588;8.640;2023-04-07T09:02:52;15.50;72.90
68691;DHT22;55675;49.588;8.640;2023-04-07T09:05:18;15.60;73.30
68691;DHT22;55675;49.588;8.640;2023-04-07T09:07:45;15.80;72.80
68691;DHT22;55675;49.588;8.640;2023-04-07T09:10:11;16.00;72.80
68691;DHT22;55675;49.588;8.640;2023-04-07T09:12:36;16.30;72.60
68691;DHT22;55675;49.588;8.640;2023-04-07T09:15:02;16.70;72.60
68691;DHT22;55675;49.588;8.640;2023-04-07T09:17:28;16.90;71.10
68691;DHT22;55675;49.588;8.640;2023-04-07T09:19:57;16.90;67.70
68691;DHT22;55675;49.588;8.640;2023-04-07T09:25:14;16.90;68.10
68691;DHT22;55675;49.588;8.640;2023-04-07T09:27:40;16.80;66.90
68691;DHT22;55675;49.588;8.640;2023-04-07T09:30:12;16.70;66.00
68691;DHT22;55675;49.588;8.640;2023-04-07T09:32:39;16.50;66.80
68691;DHT22;55675;49.588;8.640;2023-04-07T09:35:05;16.40;67.70
68691;DHT22;55675;49.588;8.640;2023-04-07T09:37:31;16.40;67.90
68691;DHT22;55675;49.588;8.640;2023-04-07T09:39:56;16.50;67.80
68691;DHT22;55675;49.588;8.640;2023-04-07T09:42:22;16.50;67.80
68691;DHT22;55675;49.588;8.640;2023-04-07T09:44:47;16.60;67.50
68691;DHT22;55675;49.588;8.640;2023-04-07T09:47:13;16.80;67.50
68691;DHT22;55675;49.588;8.640;2023-04-07T09:49:48;17.20;67.60
68691;DHT22;55675;49.588;8.640;2023-04-07T09:52:15;17.40;66.70
68691;DHT22;55675;49.588;8.640;2023-04-07T09:54:41;17.50;66.30
68691;DHT22;55675;49.588;8.640;2023-04-07T09:57:07;17.50;65.70
68691;DHT22;55675;49.588;8.640;2023-04-07T09:59:34;17.50;65.70
68691;DHT22;55675;49.588;8.640;2023-04-07T10:02:00;17.40;65.00
68691;DHT22;55675;49.588;8.640;2023-04-07T10:04:26;17.40;65.00
68691;DHT22;55675;49.588;8.640;2023-04-07T10:06:52;17.50;65.20
68691;DHT22;55675;49.588;8.640;2023-04-07T10:09:19;17.50;64.20
68691;DHT22;55675;49.588;8.640;2023-04-07T10:11:44;17.60;64.60
68691;DHT22;55675;49.588;8.640;2023-04-07T10:14:10;17.80;65.00
68691;DHT22;55675;49.588;8.640;2023-04-07T10:16:36;17.90;64.00
68691;DHT22;55675;49.588;8.640;2023-04-07T10:19:02;17.90;63.00
68691;DHT22;55675;49.588;8.640;2023-04-07T10:21:28;18.00;62.70
68691;DHT22;55675;49.588;8.640;2023-04-07T10:26:44;17.80;62.20
68691;DHT22;55675;49.588;8.640;2023-04-07T10:29:11;17.50;60.50
68691;DHT22;55675;49.588;8.640;2023-04-07T10:31:38;17.20;61.30
68691;DHT22;55675;49.588;8.640;2023-04-07T10:34:03;16.90;61.40
68691;DHT22;55675;49.588;8.640;2023-04-07T10:36:30;16.50;61.60
68691;DHT22;55675;49.588;8.640;2023-04-07T10:41:33;16.00;64.00
68691;DHT22;55675;49.588;8.640;2023-04-07T10:44:00;15.80;64.60
68691;DHT22;55675;49.588;8.640;2023-04-07T10:49:12;15.40;68.50
68691;DHT22;55675;49.588;8.640;2023-04-07T10:51:38;15.20;69.90
68691;DHT22;55675;49.588;8.640;2023-04-07T10:54:13;15.00;70.70
68691;DHT22;55675;49.588;8.640;2023-04-07T10:59:23;14.60;73.60
68691;DHT22;55675;49.588;8.640;2023-04-07T11:02:03;14.40;75.20
68691;DHT22;55675;49.588;8.640;2023-04-07T11:04:37;14.20;76.30
68691;DHT22;55675;49.588;8.640;2023-04-07T11:07:03;14.20;76.60
68691;DHT22;55675;49.588;8.640;2023-04-07T11:09:28;14.30;76.60
68691;DHT22;55675;49.588;8.640;2023-04-07T11:11:54;14.40;76.00
68691;DHT22;55675;49.588;8.640;2023-04-07T11:14:24;14.70;76.00
68691;DHT22;55675;49.588;8.640;2023-04-07T11:16:51;15.10;75.60
68691;DHT22;55675;49.588;8.640;2023-04-07T11:19:16;15.60;74.30
68691;DHT22;55675;49.588;8.640;2023-04-07T11:21:42;16.00;72.10
68691;DHT22;55675;49.588;8.640;2023-04-07T11:24:07;16.40;71.30
68691;DHT22;55675;49.588;8.640;2023-04-07T11:26:36;16.50;69.10
68691;DHT22;55675;49.588;8.640;2023-04-07T11:29:03;16.80;69.20
68691;DHT22;55675;49.588;8.640;2023-04-07T11:31:29;17.10;68.50
68691;DHT22;55675;49.588;8.640;2023-04-07T11:33:56;17.30;66.70
68691;DHT22;55675;49.588;8.640;2023-04-07T11:38:55;17.80;63.50
68691;DHT22;55675;49.588;8.640;2023-04-07T11:41:22;17.90;63.10
68691;DHT22;55675;49.588;8.640;2023-04-07T11:43:47;17.90;62.20
68691;DHT22;55675;49.588;8.640;2023-04-07T11:46:14;17.80;62.80
68691;DHT22;55675;49.588;8.640;2023-04-07T11:48:41;17.80;63.30
68691;DHT22;55675;49.588;8.640;2023-04-07T11:51:14;17.70;64.60
68691;DHT22;55675;49.588;8.640;2023-04-07T11:53:40;17.70;65.30
68691;DHT22;55675;49.588;8.640;2023-04-07T11:56:07;17.90;65.60
68691;DHT22;55675;49.588;8.640;2023-04-07T11:58:34;18.00;65.70
68691;DHT22;55675;49.588;8.640;2023-04-07T12:01:03;18.30;65.50
68691;DHT22;55675;49.588;8.640;2023-04-07T12:03:31;18.60;63.40
68691;DHT22;55675;49.588;8.640;2023-04-07T12:05:57;18.70;61.90
68691;DHT22;55675;49.588;8.640;2023-04-07T12:08:35;19.00;62.70
68691;DHT22;55675;49.588;8.640;2023-04-07T12:11:04;18.90;59.60
68691;DHT22;55675;49.588;8.640;2023-04-07T12:13:29;18.70;61.40
68691;DHT22;55675;49.588;8.640;2023-04-07T12:15:56;18.80;61.80
68691;DHT22;55675;49.588;8.640;2023-04-07T12:18:22;18.80;62.00
68691;DHT22;55675;49.588;8.640;2023-04-07T12:20:49;18.90;63.00
68691;DHT22;55675;49.588;8.640;2023-04-07T12:23:15;18.90;61.40
68691;DHT22;55675;49.588;8.640;2023-04-07T12:25:40;19.00;60.60
68691;DHT22;55675;49.588;8.640;2023-04-07T12:28:06;18.80;60.40
68691;DHT22;55675;49.588;8.640;2023-04-07T12:30:31;18.40;62.00
68691;DHT22;55675;49.588;8.640;2023-04-07T12:32:57;18.00;62.60
68691;DHT22;55675;49.588;8.640;2023-04-07T12:35:23;17.90;64.60
68691;DHT22;55675;49.588;8.640;2023-04-07T12:37:48;17.50;65.90
68691;DHT22;55675;49.588;8.640;2023-04-07T12:40:13;17.10;66.20
68691;DHT22;55675;49.588;8.640;2023-04-07T12:42:40;17.00;67.90
68691;DHT22;55675;49.588;8.640;2023-04-07T12:45:05;17.00;69.00
68691;DHT22;55675;49.588;8.640;2023-04-07T12:47:31;16.80;70.30
68691;DHT22;55675;49.588;8.640;2023-04-07T12:49:56;16.80;71.60
68691;DHT22;55675;49.588;8.640;2023-04-07T12:52:22;17.00;73.00
68691;DHT22;55675;49.588;8.640;2023-04-07T12:54:47;17.00;72.70
68691;DHT22;55675;49.588;8.640;2023-04-07T12:57:12;17.00;73.40
68691;DHT22;55675;49.588;8.640;2023-04-07T12:59:38;17.00;73.00
68691;DHT22;55675;49.588;8.640;2023-04-07T13:02:04;17.10;72.80
68691;DHT22;55675;49.588;8.640;2023-04-07T13:04:29;17.30;72.70
68691;DHT22;55675;49.588;8.640;2023-04-07T13:06:55;17.40;71.40
68691;DHT22;55675;49.588;8.640;2023-04-07T13:09:20;17.40;70.30
68691;DHT22;55675;49.588;8.640;2023-04-07T13:11:46;17.40;70.90
68691;DHT22;55675;49.588;8.640;2023-04-07T13:14:11;17.60;71.10
68691;DHT22;55675;49.588;8.640;2023-04-07T13:16:37;17.70;70.80
68691;DHT22;55675;49.588;8.640;2023-04-07T13:19:03;17.90;70.20
68691;DHT22;55675;49.588;8.640;2023-04-07T13:21:28;18.10;70.00
68691;DHT22;55675;49.588;8.640;2023-04-07T13:23:54;18.30;69.00
68691;DHT22;55675;49.588;8.640;2023-04-07T13:26:19;18.40;68.40
68691;DHT22;55675;49.588;8.640;2023-04-07T13:28:45;18.30;68.20
68691;DHT22;55675;49.588;8.640;2023-04-07T13:31:12;18.20;68.90
68691;DHT22;55675;49.588;8.640;2023-04-07T13:33:40;18.10;69.80
68691;DHT22;55675;49.588;8.640;2023-04-07T13:36:05;18.00;69.10
68691;DHT22;55675;49.588;8.640;2023-04-07T13:38:32;18.00;69.70
68691;DHT22;55675;49.588;8.640;2023-04-07T13:40:57;18.00;70.10
68691;DHT22;55675;49.588;8.640;2023-04-07T13:43:23;18.00;70.00
68691;DHT22;55675;49.588;8.640;2023-04-07T13:45:48;17.90;69.40
68691;DHT22;55675;49.588;8.640;2023-04-07T13:48:14;17.90;68.70
68691;DHT22;55675;49.588;8.640;2023-04-07T13:50:40;17.90;67.90
68691;DHT22;55675;49.588;8.640;2023-04-07T13:53:05;18.00;65.80
68691;DHT22;55675;49.588;8.640;2023-04-07T13:55:31;18.60;66.80
68691;DHT22;55675;49.588;8.640;2023-04-07T13:57:56;19.00;62.90
68691;DHT22;55675;49.588;8.640;2023-04-07T14:00:22;19.10;62.10
68691;DHT22;55675;49.588;8.640;2023-04-07T14:02:47;19.60;60.40
68691;DHT22;55675;49.588;8.640;2023-04-07T14:05:12;20.30;59.70
68691;DHT22;55675;49.588;8.640;2023-04-07T14:07:38;22.70;57.10
68691;DHT22;55675;49.588;8.640;2023-04-07T14:10:04;25.30;50.30
68691;DHT22;55675;49.588;8.640;2023-04-07T14:12:29;27.10;45.60
68691;DHT22;55675;49.588;8.640;2023-04-07T14:14:55;27.50;44.00
68691;DHT22;55675;49.588;8.640;2023-04-07T14:17:20;28.90;41.70
68691;DHT22;55675;49.588;8.640;2023-04-07T14:19:46;29.10;35.30
68691;DHT22;55675;49.588;8.640;2023-04-07T14:22:12;29.10;36.50
68691;DHT22;55675;49.588;8.640;2023-04-07T14:24:38;28.40;36.70
68691;DHT22;55675;49.588;8.640;2023-04-07T14:27:04;27.20;36.60
68691;DHT22;55675;49.588;8.640;2023-04-07T14:29:30;26.10;37.70
68691;DHT22;55675;49.588;8.640;2023-04-07T14:31:55;25.90;37.50
68691;DHT22;55675;49.588;8.640;2023-04-07T14:34:21;24.90;38.30
68691;DHT22;55675;49.588;8.640;2023-04-07T14:36:56;23.80;40.00
68691;DHT22;55675;49.588;8.640;2023-04-07T14:39:23;22.90;42.30
68691;DHT22;55675;49.588;8.640;2023-04-07T14:41:49;22.70;43.20
68691;DHT22;55675;49.588;8.640;2023-04-07T14:44:15;22.30;43.90
68691;DHT22;55675;49.588;8.640;2023-04-07T14:46:41;21.70;44.00
68691;DHT22;55675;49.588;8.640;2023-04-07T14:49:06;21.00;45.70
68691;DHT22;55675;49.588;8.640;2023-04-07T14:51:32;20.60;47.50
68691;DHT22;55675;49.588;8.640;2023-04-07T14:53:58;20.30;48.50
68691;DHT22;55675;49.588;8.640;2023-04-07T14:56:23;20.10;49.50
68691;DHT22;55675;49.588;8.640;2023-04-07T14:58:49;19.80;50.30
68691;DHT22;55675;49.588;8.640;2023-04-07T15:01:15;19.70;51.00
68691;DHT22;55675;49.588;8.640;2023-04-07T15:03:40;19.70;51.60
68691;DHT22;55675;49.588;8.640;2023-04-07T15:06:07;19.90;51.70
68691;DHT22;55675;49.588;8.640;2023-04-07T15:08:32;19.90;51.40
68691;DHT22;55675;49.588;8.640;2023-04-07T15:10:58;19.90;52.20
68691;DHT22;55675;49.588;8.640;2023-04-07T15:13:23;19.70;52.20
68691;DHT22;55675;49.588;8.640;2023-04-07T15:15:49;19.50;52.80
68691;DHT22;55675;49.588;8.640;2023-04-07T15:18:15;19.30;53.80
68691;DHT22;55675;49.588;8.640;2023-04-07T15:20:40;19.10;54.40
68691;DHT22;55675;49.588;8.640;2023-04-07T15:23:06;18.90;54.70
68691;DHT22;55675;49.588;8.640;2023-04-07T15:25:32;18.70;55.90
68691;DHT22;55675;49.588;8.640;2023-04-07T15:27:57;18.50;56.60
68691;DHT22;55675;49.588;8.640;2023-04-07T15:30:23;18.30;57.50
68691;DHT22;55675;49.588;8.640;2023-04-07T15:32:58;18.20;58.40
68691;DHT22;55675;49.588;8.640;2023-04-07T15:35:24;18.00;58.40
68691;DHT22;55675;49.588;8.640;2023-04-07T15:37:50;17.80;58.80
68691;DHT22;55675;49.588;8.640;2023-04-07T15:40:16;17.60;59.90
68691;DHT22;55675;49.588;8.640;2023-04-07T15:42:41;17.40;60.50
68691;DHT22;55675;49.588;8.640;2023-04-07T15:45:07;17.40;62.40
68691;DHT22;55675;49.588;8.640;2023-04-07T15:47:32;17.40;63.00
68691;DHT22;55675;49.588;8.640;2023-04-07T15:49:58;17.50;62.10